createdAt,value
2018-12-21T00:00:45.823Z,1004.04
2018-12-21T00:01:45.799Z,1004.01
2018-12-21T00:02:45.772Z,1003.95
2018-12-21T00:03:45.742Z,1003.96
2018-12-21T00:04:45.720Z,1003.92
2018-12-21T00:05:45.696Z,1003.91
2018-12-21T00:06:45.670Z,1003.90
2018-12-21T00:07:45.646Z,1003.98
2018-12-21T00:08:45.622Z,1003.91
2018-12-21T00:09:45.598Z,1003.94
2018-12-21T00:10:45.625Z,1003.91
2018-12-21T00:11:45.551Z,1003.88
2018-12-21T00:12:45.526Z,1003.88
2018-12-21T00:13:45.502Z,1003.94
2018-12-21T00:14:45.479Z,1003.87
2018-12-21T00:15:45.456Z,1003.89
2018-12-21T00:16:45.429Z,1003.83
2018-12-21T00:17:45.479Z,1003.84
2018-12-21T00:18:45.385Z,1003.77
2018-12-21T00:19:45.363Z,1003.81
2018-12-21T00:20:45.335Z,1003.73
2018-12-21T00:21:45.310Z,1003.77
2018-12-21T00:22:45.284Z,1003.74
2018-12-21T00:23:45.261Z,1003.65
2018-12-21T00:24:45.235Z,1003.71
2018-12-21T00:25:45.210Z,1003.69
2018-12-21T00:26:45.188Z,1003.70
2018-12-21T00:27:45.165Z,1003.71
2018-12-21T00:28:45.140Z,1003.75
2018-12-21T00:29:45.114Z,1003.71
2018-12-21T00:30:45.092Z,1003.80
2018-12-21T00:31:45.065Z,1003.71
2018-12-21T00:32:45.042Z,1003.77
2018-12-21T00:33:45.018Z,1003.78
2018-12-21T00:34:44.994Z,1003.77
2018-12-21T00:35:44.970Z,1003.74
2018-12-21T00:36:44.945Z,1003.76
2018-12-21T00:37:44.928Z,1003.72
2018-12-21T00:38:44.904Z,1003.72
2018-12-21T00:39:44.878Z,1003.69
2018-12-21T00:40:44.851Z,1003.69
2018-12-21T00:41:44.826Z,1003.68
2018-12-21T00:42:44.803Z,1003.71
2018-12-21T00:43:44.778Z,1003.62
2018-12-21T00:44:44.753Z,1003.71
2018-12-21T00:45:44.728Z,1003.71
2018-12-21T00:46:44.741Z,1003.71
2018-12-21T00:47:44.681Z,1003.65
2018-12-21T00:48:44.660Z,1003.66
2018-12-21T00:49:44.633Z,1003.62
2018-12-21T00:50:44.607Z,1003.58
2018-12-21T00:51:44.584Z,1003.60
2018-12-21T00:52:44.561Z,1003.63
2018-12-21T00:53:44.534Z,1003.56
2018-12-21T00:54:44.512Z,1003.52
2018-12-21T00:55:44.487Z,1003.53
2018-12-21T00:56:44.463Z,1003.49
2018-12-21T00:57:44.439Z,1003.44
2018-12-21T00:58:44.416Z,1003.45
2018-12-21T00:59:44.393Z,1003.41
2018-12-21T01:00:44.366Z,1003.40
2018-12-21T01:01:44.342Z,1003.39
2018-12-21T01:02:44.319Z,1003.41
2018-12-21T01:03:44.294Z,1003.38
2018-12-21T01:04:44.271Z,1003.33
2018-12-21T01:05:44.246Z,1003.35
2018-12-21T01:06:44.224Z,1003.35
2018-12-21T01:07:44.199Z,1003.30
2018-12-21T01:08:44.176Z,1003.33
2018-12-21T01:09:44.153Z,1003.31
2018-12-21T01:10:44.127Z,1003.34
2018-12-21T01:11:44.103Z,1003.33
2018-12-21T01:12:44.078Z,1003.27
2018-12-21T01:13:44.056Z,1003.29
2018-12-21T01:14:44.030Z,1003.25
2018-12-21T01:15:44.004Z,1003.32
2018-12-21T01:16:43.981Z,1003.29
2018-12-21T01:17:43.957Z,1003.30
2018-12-21T01:18:43.933Z,1003.28
2018-12-21T01:19:43.909Z,1003.29
2018-12-21T01:20:43.885Z,1003.28
2018-12-21T01:21:43.861Z,1003.30
2018-12-21T01:22:43.837Z,1003.33
2018-12-21T01:23:43.813Z,1003.30
2018-12-21T01:24:43.789Z,1003.26
2018-12-21T01:25:43.763Z,1003.31
2018-12-21T01:26:43.743Z,1003.31
2018-12-21T01:27:43.722Z,1003.29
2018-12-21T01:28:43.692Z,1003.24
2018-12-21T01:29:43.669Z,1003.22
2018-12-21T01:30:43.645Z,1003.22
2018-12-21T01:31:43.622Z,1003.28
2018-12-21T01:32:43.597Z,1003.20
2018-12-21T01:33:43.571Z,1003.26
2018-12-21T01:34:43.547Z,1003.22
2018-12-21T01:35:43.522Z,1003.23
2018-12-21T01:36:43.522Z,1003.18
2018-12-21T01:37:43.475Z,1003.23
2018-12-21T01:38:43.450Z,1003.16
2018-12-21T01:39:43.427Z,1003.17
2018-12-21T01:40:43.403Z,1003.15
2018-12-21T01:41:43.378Z,1003.17
2018-12-21T01:42:43.358Z,1003.17
2018-12-21T01:43:43.330Z,1003.13
2018-12-21T01:44:43.311Z,1003.10
2018-12-21T01:45:43.281Z,1003.13
2018-12-21T01:46:43.258Z,1003.07
2018-12-21T01:47:43.235Z,1003.04
2018-12-21T01:48:43.215Z,1003.05
2018-12-21T01:49:43.265Z,1003.07
2018-12-21T01:50:43.187Z,1003.06
2018-12-21T01:51:47.035Z,1003.07
2018-12-21T01:52:43.116Z,1003.06
2018-12-21T01:53:43.091Z,1003.13
2018-12-21T01:54:43.065Z,1003.08
2018-12-21T01:55:43.044Z,1003.08
2018-12-21T01:56:43.017Z,1003.06
2018-12-21T01:57:42.994Z,1003.04
2018-12-21T01:58:42.970Z,1003.02
2018-12-21T01:59:42.944Z,1002.98
2018-12-21T02:00:42.944Z,1002.97
2018-12-21T02:01:42.897Z,1002.96
2018-12-21T02:02:42.873Z,1002.88
2018-12-21T02:03:42.851Z,1002.89
2018-12-21T02:04:42.825Z,1002.87
2018-12-21T02:05:42.800Z,1002.88
2018-12-21T02:06:42.776Z,1002.86
2018-12-21T02:07:42.753Z,1002.77
2018-12-21T02:08:42.733Z,1002.75
2018-12-21T02:09:42.710Z,1002.76
2018-12-21T02:10:42.682Z,1002.72
2018-12-21T02:11:42.657Z,1002.62
2018-12-21T02:12:42.633Z,1002.65
2018-12-21T02:13:42.608Z,1002.59
2018-12-21T02:14:42.584Z,1002.56
2018-12-21T02:15:42.561Z,1002.69
2018-12-21T02:16:42.536Z,1002.64
2018-12-21T02:17:42.511Z,1002.62
2018-12-21T02:18:42.489Z,1002.66
2018-12-21T02:19:42.465Z,1002.62
2018-12-21T02:20:42.441Z,1002.61
2018-12-21T02:21:42.415Z,1002.65
2018-12-21T02:22:42.392Z,1002.56
2018-12-21T02:23:42.368Z,1002.60
2018-12-21T02:24:42.346Z,1002.52
2018-12-21T02:25:42.321Z,1002.61
2018-12-21T02:26:42.298Z,1002.50
2018-12-21T02:27:42.273Z,1002.50
2018-12-21T02:28:42.352Z,1002.56
2018-12-21T02:29:42.225Z,1002.54
2018-12-21T02:30:42.203Z,1002.46
2018-12-21T02:31:42.198Z,1002.46
2018-12-21T02:32:42.154Z,1002.46
2018-12-21T02:33:42.129Z,1002.48
2018-12-21T02:34:42.113Z,1002.47
2018-12-21T02:35:42.084Z,1002.40
2018-12-21T02:36:42.056Z,1002.48
2018-12-21T02:37:42.033Z,1002.45
2018-12-21T02:38:42.011Z,1002.44
2018-12-21T02:39:41.986Z,1002.39
2018-12-21T02:40:41.962Z,1002.44
2018-12-21T02:41:41.938Z,1002.43
2018-12-21T02:42:41.911Z,1002.43
2018-12-21T02:43:41.890Z,1002.51
2018-12-21T02:44:41.866Z,1002.46
2018-12-21T02:45:41.842Z,1002.44
2018-12-21T02:46:41.817Z,1002.44
2018-12-21T02:47:41.792Z,1002.41
2018-12-21T02:48:41.770Z,1002.39
2018-12-21T02:49:41.746Z,1002.38
2018-12-21T02:50:41.719Z,1002.39
2018-12-21T02:51:41.699Z,1002.47
2018-12-21T02:52:41.671Z,1002.46
2018-12-21T02:53:41.651Z,1002.43
2018-12-21T02:54:41.624Z,1002.41
2018-12-21T02:55:41.600Z,1002.45
2018-12-21T02:56:41.576Z,1002.36
2018-12-21T02:57:41.550Z,1002.34
2018-12-21T02:58:41.528Z,1002.32
2018-12-21T02:59:41.503Z,1002.26
2018-12-21T03:00:41.482Z,1002.25
2018-12-21T03:01:41.457Z,1002.26
2018-12-21T03:02:41.431Z,1002.24
2018-12-21T03:03:41.406Z,1002.22
2018-12-21T03:04:41.382Z,1002.21
2018-12-21T03:05:41.359Z,1002.20
2018-12-21T03:06:41.335Z,1002.15
2018-12-21T03:07:41.333Z,1002.10
2018-12-21T03:08:41.289Z,1002.10
2018-12-21T03:09:41.264Z,1002.10
2018-12-21T03:10:41.248Z,1002.07
2018-12-21T03:11:41.216Z,1002.14
2018-12-21T03:12:41.190Z,1002.12
2018-12-21T03:13:41.167Z,1002.09
2018-12-21T03:14:41.144Z,1002.02
2018-12-21T03:15:41.123Z,1002.05
2018-12-21T03:16:41.097Z,1001.98
2018-12-21T03:17:41.072Z,1001.94
2018-12-21T03:18:41.047Z,1001.93
2018-12-21T03:19:41.025Z,1001.89
2018-12-21T03:20:41.000Z,1001.90
2018-12-21T03:21:40.977Z,1001.87
2018-12-21T03:22:40.960Z,1001.76
2018-12-21T03:23:40.929Z,1001.77
2018-12-21T03:24:40.906Z,1001.69
2018-12-21T03:25:40.880Z,1001.75
2018-12-21T03:26:40.856Z,1001.67
2018-12-21T03:27:40.833Z,1001.64
2018-12-21T03:28:40.812Z,1001.65
2018-12-21T03:29:40.786Z,1001.67
2018-12-21T03:30:40.765Z,1001.61
2018-12-21T03:31:40.872Z,1001.55
2018-12-21T03:32:40.715Z,1001.49
2018-12-21T03:33:40.689Z,1001.54
2018-12-21T03:34:40.666Z,1001.52
2018-12-21T03:35:40.645Z,1001.53
2018-12-21T03:36:40.620Z,1001.43
2018-12-21T03:37:40.599Z,1001.42
2018-12-21T03:38:40.570Z,1001.37
2018-12-21T03:39:40.547Z,1001.40
2018-12-21T03:40:40.524Z,1001.33
2018-12-21T03:41:40.498Z,1001.29
2018-12-21T03:42:40.477Z,1001.20
2018-12-21T03:43:40.451Z,1001.16
2018-12-21T03:44:40.428Z,1001.08
2018-12-21T03:45:40.404Z,1001.03
2018-12-21T03:46:40.380Z,1001.00
2018-12-21T03:47:40.356Z,1000.97
2018-12-21T03:48:40.332Z,1000.90
2018-12-21T03:49:40.380Z,1000.93
2018-12-21T03:50:40.285Z,1000.96
2018-12-21T03:51:40.263Z,1000.94
2018-12-21T03:52:40.237Z,1000.93
2018-12-21T03:53:40.218Z,1000.87
2018-12-21T03:54:40.305Z,1000.84
2018-12-21T03:55:40.167Z,1000.83
2018-12-21T03:56:40.143Z,1000.79
2018-12-21T03:57:40.118Z,1000.79
2018-12-21T03:58:40.093Z,1000.76
2018-12-21T03:59:40.071Z,1000.78
2018-12-21T04:00:40.052Z,1000.78
2018-12-21T04:01:40.183Z,1000.75
2018-12-21T04:02:40.008Z,1000.74
2018-12-21T04:03:39.978Z,1000.74
2018-12-21T04:04:39.961Z,1000.71
2018-12-21T04:05:39.931Z,1000.73
2018-12-21T04:06:39.904Z,1000.68
2018-12-21T04:07:39.882Z,1000.74
2018-12-21T04:08:39.858Z,1000.67
2018-12-21T04:09:39.835Z,1000.68
2018-12-21T04:10:39.812Z,1000.65
2018-12-21T04:11:39.798Z,1000.64
2018-12-21T04:12:39.763Z,1000.64
2018-12-21T04:13:39.739Z,1000.59
2018-12-21T04:14:39.715Z,1000.53
2018-12-21T04:15:39.695Z,1000.51
2018-12-21T04:16:39.670Z,1000.49
2018-12-21T04:17:39.651Z,1000.46
2018-12-21T04:18:39.620Z,1000.41
2018-12-21T04:19:39.597Z,1000.36
2018-12-21T04:20:39.573Z,1000.34
2018-12-21T04:21:39.548Z,1000.35
2018-12-21T04:22:39.525Z,1000.33
2018-12-21T04:23:39.536Z,1000.32
2018-12-21T04:24:39.478Z,1000.29
2018-12-21T04:25:39.455Z,1000.34
2018-12-21T04:26:39.432Z,1000.30
2018-12-21T04:27:39.409Z,1000.28
2018-12-21T04:28:39.386Z,1000.28
2018-12-21T04:29:39.359Z,1000.32
2018-12-21T04:30:39.335Z,1000.28
2018-12-21T04:31:39.311Z,1000.27
2018-12-21T04:32:39.291Z,1000.24
2018-12-21T04:33:39.264Z,1000.21
2018-12-21T04:34:39.268Z,1000.20
2018-12-21T04:35:39.219Z,1000.17
2018-12-21T04:36:39.195Z,1000.22
2018-12-21T04:37:39.170Z,1000.18
2018-12-21T04:38:39.148Z,1000.21
2018-12-21T04:39:39.122Z,1000.09
2018-12-21T04:40:39.101Z,1000.10
2018-12-21T04:41:39.075Z,1000.04
2018-12-21T04:42:39.051Z,1000.03
2018-12-21T04:43:39.030Z,999.99
2018-12-21T04:44:39.006Z,999.98
2018-12-21T04:45:38.980Z,999.90
2018-12-21T04:46:38.957Z,999.91
2018-12-21T04:47:38.935Z,999.87
2018-12-21T04:48:38.908Z,999.85
2018-12-21T04:49:38.885Z,999.80
2018-12-21T04:50:38.861Z,999.81
2018-12-21T04:51:38.838Z,999.84
2018-12-21T04:52:43.144Z,999.83
2018-12-21T04:53:38.794Z,999.82
2018-12-21T04:54:38.766Z,999.82
2018-12-21T04:55:38.867Z,999.81
2018-12-21T04:56:38.722Z,999.75
2018-12-21T04:57:38.697Z,999.74
2018-12-21T04:58:38.679Z,999.69
2018-12-21T04:59:38.649Z,999.70
2018-12-21T05:00:38.623Z,999.67
2018-12-21T05:01:38.608Z,999.63
2018-12-21T05:02:38.575Z,999.58
2018-12-21T05:03:38.555Z,999.60
2018-12-21T05:04:38.536Z,999.57
2018-12-21T05:05:39.567Z,999.56
2018-12-21T05:06:38.484Z,999.42
2018-12-21T05:07:38.457Z,999.41
2018-12-21T05:08:38.434Z,999.41
2018-12-21T05:09:38.409Z,999.39
2018-12-21T05:10:38.386Z,999.36
2018-12-21T05:11:38.364Z,999.39
2018-12-21T05:12:38.340Z,999.41
2018-12-21T05:13:38.316Z,999.39
2018-12-21T05:14:38.289Z,999.42
2018-12-21T05:15:38.268Z,999.33
2018-12-21T05:16:38.246Z,999.30
2018-12-21T05:17:38.219Z,999.25
2018-12-21T05:18:38.196Z,999.26
2018-12-21T05:19:38.173Z,999.22
2018-12-21T05:20:38.150Z,999.20
2018-12-21T05:21:38.125Z,999.15
2018-12-21T05:22:38.101Z,999.10
2018-12-21T05:23:38.077Z,999.08
2018-12-21T05:24:38.057Z,999.08
2018-12-21T05:25:38.029Z,999.03
2018-12-21T05:26:38.007Z,999.05
2018-12-21T05:27:37.984Z,999.02
2018-12-21T05:28:37.970Z,998.99
2018-12-21T05:29:39.610Z,998.93
2018-12-21T05:30:37.914Z,998.97
2018-12-21T05:31:37.889Z,998.87
2018-12-21T05:32:37.865Z,998.91
2018-12-21T05:33:37.841Z,998.88
2018-12-21T05:34:37.817Z,998.82
2018-12-21T05:35:37.794Z,998.86
2018-12-21T05:36:37.772Z,998.81
2018-12-21T05:37:37.746Z,998.81
2018-12-21T05:38:37.729Z,998.75
2018-12-21T05:39:37.698Z,998.82
2018-12-21T05:40:37.675Z,998.79
2018-12-21T05:41:37.652Z,998.75
2018-12-21T05:42:37.630Z,998.72
2018-12-21T05:43:37.605Z,998.90
2018-12-21T05:44:37.585Z,998.69
2018-12-21T05:45:37.562Z,998.59
2018-12-21T05:46:37.532Z,998.63
2018-12-21T05:47:37.524Z,998.57
2018-12-21T05:48:37.486Z,998.49
2018-12-21T05:49:37.463Z,998.52
2018-12-21T05:50:37.439Z,998.46
2018-12-21T05:51:37.414Z,998.42
2018-12-21T05:52:37.393Z,998.42
2018-12-21T05:53:37.366Z,998.36
2018-12-21T05:54:37.343Z,998.39
2018-12-21T05:55:37.319Z,998.35
2018-12-21T05:56:37.296Z,998.40
2018-12-21T05:57:37.272Z,998.50
2018-12-21T05:58:37.347Z,998.42
2018-12-21T05:59:37.224Z,998.39
2018-12-21T06:00:37.200Z,998.39
2018-12-21T06:01:37.175Z,998.41
2018-12-21T06:02:37.154Z,998.39
2018-12-21T06:03:37.131Z,998.42
2018-12-21T06:04:37.105Z,998.39
2018-12-21T06:05:37.080Z,998.36
2018-12-21T06:06:37.056Z,998.33
2018-12-21T06:07:37.033Z,998.30
2018-12-21T06:08:37.010Z,998.28
2018-12-21T06:09:36.986Z,998.29
2018-12-21T06:10:36.961Z,998.24
2018-12-21T06:11:36.939Z,998.16
2018-12-21T06:12:36.918Z,998.09
2018-12-21T06:13:36.891Z,998.10
2018-12-21T06:14:36.869Z,998.03
2018-12-21T06:15:36.846Z,998.03
2018-12-21T06:16:36.818Z,997.97
2018-12-21T06:17:36.794Z,997.94
2018-12-21T06:18:36.771Z,997.84
2018-12-21T06:19:36.748Z,997.82
2018-12-21T06:20:36.725Z,997.83
2018-12-21T06:21:36.699Z,997.68
2018-12-21T06:22:36.676Z,997.59
2018-12-21T06:23:36.653Z,997.60
2018-12-21T06:24:36.629Z,997.56
2018-12-21T06:25:36.611Z,997.52
2018-12-21T06:26:36.584Z,997.49
2018-12-21T06:27:36.559Z,997.45
2018-12-21T06:28:36.536Z,997.49
2018-12-21T06:29:36.513Z,997.50
2018-12-21T06:30:36.487Z,997.55
2018-12-21T06:31:36.463Z,997.49
2018-12-21T06:32:36.441Z,997.43
2018-12-21T06:33:36.418Z,997.45
2018-12-21T06:34:36.393Z,997.47
2018-12-21T06:35:36.371Z,997.36
2018-12-21T06:36:36.356Z,997.33
2018-12-21T06:37:36.322Z,997.35
2018-12-21T06:38:36.299Z,997.24
2018-12-21T06:39:36.277Z,997.29
2018-12-21T06:40:36.251Z,997.34
2018-12-21T06:41:36.247Z,997.32
2018-12-21T06:42:36.206Z,997.31
2018-12-21T06:43:36.181Z,997.28
2018-12-21T06:44:36.170Z,997.33
2018-12-21T06:45:36.132Z,997.19
2018-12-21T06:46:36.136Z,997.24
2018-12-21T06:47:36.086Z,997.21
2018-12-21T06:48:36.063Z,997.26
2018-12-21T06:49:36.038Z,997.18
2018-12-21T06:50:36.019Z,997.16
2018-12-21T06:51:35.994Z,997.18
2018-12-21T06:52:35.969Z,997.20
2018-12-21T06:53:35.944Z,997.05
2018-12-21T06:54:35.922Z,997.06
2018-12-21T06:55:35.896Z,997.01
2018-12-21T06:56:35.874Z,997.01
2018-12-21T06:57:35.858Z,997.03
2018-12-21T06:58:35.827Z,997.02
2018-12-21T06:59:35.802Z,996.98
2018-12-21T07:00:35.779Z,996.91
2018-12-21T07:01:35.774Z,996.93
2018-12-21T07:02:35.731Z,996.91
2018-12-21T07:03:35.708Z,996.92
2018-12-21T07:04:35.684Z,996.95
2018-12-21T07:05:35.658Z,996.87
2018-12-21T07:06:35.636Z,996.88
2018-12-21T07:07:35.612Z,996.88
2018-12-21T07:08:35.592Z,996.84
2018-12-21T07:09:35.564Z,996.76
2018-12-21T07:10:35.541Z,996.71
2018-12-21T07:11:35.518Z,996.65
2018-12-21T07:12:35.495Z,996.64
2018-12-21T07:13:35.470Z,996.61
2018-12-21T07:14:35.445Z,996.58
2018-12-21T07:15:35.422Z,996.52
2018-12-21T07:16:35.399Z,996.49
2018-12-21T07:17:35.374Z,996.47
2018-12-21T07:18:35.357Z,996.43
2018-12-21T07:19:35.328Z,996.41
2018-12-21T07:20:35.307Z,996.44
2018-12-21T07:21:35.280Z,996.35
2018-12-21T07:22:35.257Z,996.34
2018-12-21T07:23:35.234Z,996.33
2018-12-21T07:24:35.209Z,996.29
2018-12-21T07:25:35.185Z,996.22
2018-12-21T07:26:35.162Z,996.20
2018-12-21T07:27:35.154Z,996.16
2018-12-21T07:28:35.115Z,996.12
2018-12-21T07:29:35.092Z,996.13
2018-12-21T07:30:35.066Z,996.04
2018-12-21T07:31:35.043Z,996.02
2018-12-21T07:32:35.021Z,995.94
2018-12-21T07:33:34.996Z,995.85
2018-12-21T07:34:34.975Z,995.81
2018-12-21T07:35:34.951Z,995.79
2018-12-21T07:36:34.930Z,995.80
2018-12-21T07:37:34.904Z,995.74
2018-12-21T07:38:34.878Z,995.69
2018-12-21T07:39:34.856Z,995.67
2018-12-21T07:40:34.832Z,995.64
2018-12-21T07:41:34.807Z,995.62
2018-12-21T07:42:34.786Z,995.51
2018-12-21T07:43:34.761Z,995.56
2018-12-21T07:44:34.739Z,995.54
2018-12-21T07:45:34.711Z,995.51
2018-12-21T07:46:34.690Z,995.50
2018-12-21T07:47:34.669Z,995.45
2018-12-21T07:48:34.646Z,995.47
2018-12-21T07:49:34.619Z,995.41
2018-12-21T07:50:34.595Z,995.44
2018-12-21T07:51:34.576Z,995.43
2018-12-21T07:52:34.550Z,995.34
2018-12-21T07:53:35.854Z,995.40
2018-12-21T07:54:34.502Z,995.35
2018-12-21T07:55:34.481Z,995.30
2018-12-21T07:56:34.456Z,995.31
2018-12-21T07:57:34.431Z,995.22
2018-12-21T07:58:34.409Z,995.17
2018-12-21T07:59:34.388Z,995.17
2018-12-21T08:00:34.362Z,995.14
2018-12-21T08:01:34.339Z,995.06
2018-12-21T08:02:34.320Z,995.04
2018-12-21T08:03:34.291Z,995.01
2018-12-21T08:04:34.269Z,994.97
2018-12-21T08:05:34.245Z,994.92
2018-12-21T08:06:34.221Z,994.89
2018-12-21T08:07:34.200Z,994.88
2018-12-21T08:08:34.177Z,994.85
2018-12-21T08:09:34.152Z,994.87
2018-12-21T08:10:34.130Z,994.87
2018-12-21T08:11:34.104Z,994.83
2018-12-21T08:12:34.082Z,994.79
2018-12-21T08:13:34.056Z,994.85
2018-12-21T08:14:34.034Z,994.81
2018-12-21T08:15:34.013Z,994.72
2018-12-21T08:16:33.988Z,994.74
2018-12-21T08:17:33.964Z,994.66
2018-12-21T08:18:33.943Z,994.66
2018-12-21T08:19:33.918Z,994.65
2018-12-21T08:20:33.895Z,994.62
2018-12-21T08:21:33.871Z,994.57
2018-12-21T08:22:33.848Z,994.59
2018-12-21T08:23:33.825Z,994.51
2018-12-21T08:24:33.801Z,994.42
2018-12-21T08:25:33.831Z,994.43
2018-12-21T08:26:33.760Z,994.47
2018-12-21T08:27:33.733Z,994.44
2018-12-21T08:28:33.709Z,994.47
2018-12-21T08:31:01.534Z,994.48
2018-12-21T08:32:01.476Z,994.48
2018-12-21T08:33:54.845Z,994.43
2018-12-21T08:34:54.796Z,994.40
2018-12-21T08:36:48.157Z,994.25
2018-12-21T08:37:48.104Z,994.26
2018-12-21T08:39:41.484Z,994.39
2018-12-21T08:40:41.427Z,994.41
2018-12-21T08:42:34.870Z,994.35
2018-12-21T08:43:34.749Z,994.32
2018-12-21T08:45:28.100Z,994.26
2018-12-21T08:46:28.047Z,994.25
2018-12-21T08:48:22.389Z,994.21
2018-12-21T08:49:22.358Z,994.18
2018-12-21T08:51:15.730Z,994.09
2018-12-21T08:52:15.668Z,994.10
2018-12-21T08:54:09.006Z,994.05
2018-12-21T08:55:08.971Z,994.04
2018-12-21T08:57:02.354Z,994.06
2018-12-21T08:58:02.298Z,993.98
2018-12-21T08:59:55.660Z,993.90
2018-12-21T09:00:55.603Z,993.89
2018-12-21T09:02:48.945Z,993.81
2018-12-21T09:03:48.917Z,993.77
2018-12-21T09:04:48.889Z,993.84
2018-12-21T09:05:48.865Z,993.71
2018-12-21T09:06:48.842Z,993.70
2018-12-21T09:07:48.820Z,993.66
2018-12-21T09:08:48.863Z,993.73
2018-12-21T09:09:48.773Z,993.63
2018-12-21T09:10:48.750Z,993.63
2018-12-21T09:11:48.729Z,993.55
2018-12-21T09:12:48.704Z,993.60
2018-12-21T09:13:48.726Z,993.55
2018-12-21T09:14:48.656Z,993.53
2018-12-21T09:15:48.633Z,993.52
2018-12-21T09:16:48.612Z,993.50
2018-12-21T09:17:48.587Z,993.43
2018-12-21T09:18:48.573Z,993.40
2018-12-21T09:19:48.545Z,993.37
2018-12-21T09:20:48.516Z,993.34
2018-12-21T09:21:48.506Z,993.31
2018-12-21T09:22:48.474Z,993.17
2018-12-21T09:23:48.446Z,993.26
2018-12-21T09:24:48.426Z,993.28
2018-12-21T09:25:48.400Z,993.28
2018-12-21T09:26:48.379Z,993.27
2018-12-21T09:27:48.359Z,993.20
2018-12-21T09:28:48.331Z,993.25
2018-12-21T09:29:48.307Z,993.18
2018-12-21T09:30:48.291Z,993.21
2018-12-21T09:31:48.287Z,993.15
2018-12-21T09:32:48.244Z,993.18
2018-12-21T09:33:48.215Z,993.08
2018-12-21T09:34:48.194Z,993.10
2018-12-21T09:35:48.173Z,993.07
2018-12-21T09:36:48.148Z,993.07
2018-12-21T09:37:48.125Z,993.07
2018-12-21T09:38:48.101Z,992.99
2018-12-21T09:39:48.076Z,993.00
2018-12-21T09:40:48.054Z,992.93
2018-12-21T09:41:48.033Z,992.96
2018-12-21T09:42:48.008Z,992.89
2018-12-21T09:43:47.985Z,992.92
2018-12-21T09:44:52.531Z,992.84
2018-12-21T09:45:47.937Z,992.76
2018-12-21T09:46:47.914Z,992.81
2018-12-21T09:47:47.893Z,992.73
2018-12-21T09:48:47.871Z,992.69
2018-12-21T09:49:47.845Z,992.74
2018-12-21T09:50:47.821Z,992.65
2018-12-21T09:51:47.801Z,992.63
2018-12-21T09:52:47.775Z,992.45
2018-12-21T09:53:47.755Z,992.44
2018-12-21T09:54:47.727Z,992.41
2018-12-21T09:55:47.716Z,992.36
2018-12-21T09:56:47.681Z,992.32
2018-12-21T09:57:47.660Z,992.29
2018-12-21T09:58:47.639Z,992.25
2018-12-21T09:59:47.618Z,992.27
2018-12-21T10:00:47.589Z,992.27
2018-12-21T10:01:47.569Z,992.29
2018-12-21T10:02:47.544Z,992.25
2018-12-21T10:03:47.521Z,992.26
2018-12-21T10:04:47.497Z,992.20
2018-12-21T10:05:47.474Z,992.13
2018-12-21T10:06:47.451Z,992.14
2018-12-21T10:07:47.427Z,992.07
2018-12-21T10:08:47.404Z,992.11
2018-12-21T10:09:47.381Z,992.11
2018-12-21T10:10:47.358Z,992.03
2018-12-21T10:11:47.337Z,992.09
2018-12-21T10:12:47.313Z,991.99
2018-12-21T10:13:47.295Z,992.03
2018-12-21T10:14:47.268Z,992.01
2018-12-21T10:15:47.244Z,991.94
2018-12-21T10:16:47.220Z,991.93
2018-12-21T10:17:47.198Z,991.89
2018-12-21T10:18:47.176Z,991.86
2018-12-21T10:19:47.154Z,991.90
2018-12-21T10:20:47.128Z,991.89
2018-12-21T10:21:47.107Z,991.84
2018-12-21T10:22:47.081Z,991.92
2018-12-21T10:23:47.059Z,991.90
2018-12-21T10:24:47.037Z,991.79
2018-12-21T10:25:47.021Z,991.84
2018-12-21T10:26:46.993Z,991.79
2018-12-21T10:27:46.967Z,991.71
2018-12-21T10:28:46.944Z,991.62
2018-12-21T10:29:46.922Z,991.65
2018-12-21T10:30:46.900Z,991.64
2018-12-21T10:31:46.877Z,991.63
2018-12-21T10:32:46.854Z,991.60
2018-12-21T10:33:46.830Z,991.61
2018-12-21T10:34:46.806Z,991.51
2018-12-21T10:35:46.786Z,991.54
2018-12-21T10:36:46.763Z,991.53
2018-12-21T10:37:46.737Z,991.41
2018-12-21T10:38:46.819Z,991.41
2018-12-21T10:39:46.695Z,991.49
2018-12-21T10:40:46.682Z,991.43
2018-12-21T10:41:46.647Z,991.43
2018-12-21T10:42:46.624Z,991.41
2018-12-21T10:43:46.814Z,991.33
2018-12-21T10:44:46.634Z,991.40
2018-12-21T10:45:46.554Z,991.42
2018-12-21T10:46:46.552Z,991.41
2018-12-21T10:47:46.511Z,991.34
2018-12-21T10:48:46.487Z,991.35
2018-12-21T10:49:46.464Z,991.29
2018-12-21T10:50:46.439Z,991.25
2018-12-21T10:51:46.416Z,991.20
2018-12-21T10:52:46.401Z,991.24
2018-12-21T10:53:46.830Z,991.23
2018-12-21T10:54:46.369Z,991.14
2018-12-21T10:55:46.327Z,991.15
2018-12-21T10:56:46.300Z,991.26
2018-12-21T10:57:46.277Z,991.25
2018-12-21T10:58:46.254Z,991.23
2018-12-21T10:59:46.233Z,991.12
2018-12-21T11:00:46.213Z,991.13
2018-12-21T11:01:46.188Z,991.06
2018-12-21T11:02:46.164Z,991.09
2018-12-21T11:03:46.139Z,991.14
2018-12-21T11:04:46.130Z,991.15
2018-12-21T11:05:46.095Z,991.07
2018-12-21T11:06:46.072Z,991.14
2018-12-21T11:07:46.049Z,991.20
2018-12-21T11:08:46.029Z,991.12
2018-12-21T11:09:46.004Z,991.06
2018-12-21T11:10:46.004Z,991.02
2018-12-21T11:11:45.957Z,991.08
2018-12-21T11:12:45.933Z,991.02
2018-12-21T11:13:45.911Z,991.09
2018-12-21T11:14:45.888Z,990.96
2018-12-21T11:15:45.866Z,991.00
2018-12-21T11:16:45.842Z,990.98
2018-12-21T11:17:45.824Z,990.93
2018-12-21T11:18:45.798Z,990.88
2018-12-21T11:19:45.773Z,990.86
2018-12-21T11:20:45.752Z,990.87
2018-12-21T11:21:45.729Z,990.92
2018-12-21T11:22:45.705Z,990.85
2018-12-21T11:23:45.682Z,990.80
2018-12-21T11:24:45.660Z,990.77
2018-12-21T11:25:45.666Z,990.73
2018-12-21T11:26:45.615Z,990.85
2018-12-21T11:27:45.592Z,990.75
2018-12-21T11:28:45.569Z,990.74
2018-12-21T11:29:45.549Z,990.78
2018-12-21T11:30:45.527Z,990.69
2018-12-21T11:31:45.503Z,990.79
2018-12-21T11:32:45.480Z,990.74
2018-12-21T11:33:45.457Z,990.74
2018-12-21T11:34:45.436Z,990.73
2018-12-21T11:35:45.411Z,990.70
2018-12-21T11:36:45.389Z,990.73
2018-12-21T11:37:45.453Z,990.67
2018-12-21T11:38:45.342Z,990.70
2018-12-21T11:39:45.321Z,990.70
2018-12-21T11:40:45.297Z,990.73
2018-12-21T11:41:45.276Z,990.70
2018-12-21T11:42:45.253Z,990.65
2018-12-21T11:43:45.231Z,990.66
2018-12-21T11:44:45.207Z,990.60
2018-12-21T11:45:45.186Z,990.69
2018-12-21T11:46:45.162Z,990.64
2018-12-21T11:47:45.140Z,990.64
2018-12-21T11:48:45.118Z,990.64
2018-12-21T11:49:45.096Z,990.66
2018-12-21T11:50:45.072Z,990.52
2018-12-21T11:51:45.053Z,990.53
2018-12-21T11:52:45.028Z,990.49
2018-12-21T11:53:45.007Z,990.53
2018-12-21T11:54:44.982Z,990.49
2018-12-21T11:55:44.961Z,990.52
2018-12-21T11:56:44.942Z,990.49
2018-12-21T11:57:44.916Z,990.49
2018-12-21T11:58:44.897Z,990.47
2018-12-21T11:59:45.287Z,990.51
2018-12-21T12:00:44.850Z,990.51
2018-12-21T12:01:44.830Z,990.47
2018-12-21T12:02:44.804Z,990.46
2018-12-21T12:03:44.784Z,990.47
2018-12-21T12:04:44.763Z,990.45
2018-12-21T12:05:44.737Z,990.47
2018-12-21T12:06:44.719Z,990.49
2018-12-21T12:07:44.693Z,990.44
2018-12-21T12:08:44.672Z,990.43
2018-12-21T12:09:44.650Z,990.53
2018-12-21T12:10:44.631Z,990.42
2018-12-21T12:11:44.605Z,990.42
2018-12-21T12:12:44.587Z,990.43
2018-12-21T12:13:44.562Z,990.44
2018-12-21T12:14:44.539Z,990.43
2018-12-21T12:15:44.516Z,990.41
2018-12-21T12:16:44.494Z,990.41
2018-12-21T12:17:44.473Z,990.52
2018-12-21T12:18:44.450Z,990.43
2018-12-21T12:19:44.432Z,990.37
2018-12-21T12:20:44.408Z,990.43
2018-12-21T12:21:44.385Z,990.45
2018-12-21T12:22:44.361Z,990.37
2018-12-21T12:23:44.340Z,990.39
2018-12-21T12:24:52.587Z,990.37
2018-12-21T12:25:44.296Z,990.44
2018-12-21T12:26:44.736Z,990.41
2018-12-21T12:27:44.251Z,990.40
2018-12-21T12:28:44.235Z,990.35
2018-12-21T12:29:44.209Z,990.38
2018-12-21T12:30:44.249Z,990.38